createdAt,value
2023-08-14T00:03:27.856Z,1.55
2023-08-14T00:08:31.049Z,1.90
2023-08-14T00:13:50.962Z,1.98
2023-08-14T00:18:55.617Z,1.90
2023-08-14T00:23:58.828Z,2.20
2023-08-14T00:29:01.844Z,2.40
2023-08-14T00:34:06.689Z,2.03
2023-08-14T00:39:09.881Z,1.83
2023-08-14T00:44:12.965Z,2.20
2023-08-14T00:49:18.091Z,2.40
2023-08-14T00:54:21.243Z,2.50
2023-08-14T00:59:24.508Z,2.20
2023-08-14T01:04:29.075Z,2.33
2023-08-14T01:09:32.483Z,2.92
2023-08-14T01:14:36.696Z,2.53
2023-08-14T01:19:43.805Z,2.72
2023-08-14T01:24:55.333Z,2.60
2023-08-14T01:30:01.061Z,2.22
2023-08-14T01:35:04.876Z,2.55
2023-08-14T01:40:13.972Z,2.30
2023-08-14T01:45:21.662Z,2.40
2023-08-14T01:50:28.127Z,3.00
2023-08-14T01:55:31.331Z,2.47
2023-08-14T02:00:35.963Z,2.20
2023-08-14T02:05:39.230Z,1.90
2023-08-14T02:10:42.357Z,2.40
2023-08-14T02:15:48.690Z,2.40
2023-08-14T02:20:52.040Z,2.08
2023-08-14T02:25:56.942Z,2.20
2023-08-14T02:31:04.205Z,2.10
2023-08-14T02:36:07.613Z,2.47
2023-08-14T02:41:10.718Z,1.98
2023-08-14T02:46:17.321Z,2.53
2023-08-14T02:51:20.322Z,2.40
2023-08-14T02:56:23.894Z,1.65
2023-08-14T03:01:28.486Z,2.10
2023-08-14T03:06:33.648Z,2.10
2023-08-14T03:11:36.703Z,2.13
2023-08-14T03:16:41.253Z,2.03
2023-08-14T03:21:44.380Z,2.42
2023-08-14T03:26:48.279Z,2.35
2023-08-14T03:31:53.137Z,2.10
2023-08-14T03:37:00.019Z,2.28
2023-08-14T03:42:03.348Z,2.47
2023-08-14T03:47:08.373Z,2.22
2023-08-14T03:52:12.556Z,2.40
2023-08-14T03:57:16.851Z,1.95
2023-08-14T04:02:22.891Z,2.75
2023-08-14T04:07:25.918Z,2.08
2023-08-14T04:12:29.005Z,2.20
2023-08-14T04:17:34.130Z,2.55
2023-08-14T04:22:39.691Z,2.78
2023-08-14T04:27:42.775Z,2.38
2023-08-14T04:32:47.476Z,3.22
2023-08-14T04:37:50.817Z,2.85
2023-08-14T04:42:54.142Z,2.90
2023-08-14T04:47:59.411Z,3.20
2023-08-14T04:53:04.660Z,2.88
2023-08-14T04:58:09.841Z,2.63
2023-08-14T05:03:14.860Z,2.83
2023-08-14T05:08:17.944Z,2.90
2023-08-14T05:13:21.479Z,3.00
2023-08-14T05:18:26.518Z,2.83
2023-08-14T05:23:29.994Z,3.03
2023-08-14T05:28:33.189Z,3.50
2023-08-14T05:33:38.396Z,3.67
2023-08-14T05:38:41.508Z,3.70
2023-08-14T05:43:45.010Z,3.22
2023-08-14T05:48:49.573Z,2.78
2023-08-14T05:53:52.735Z,3.60
2023-08-14T05:58:59.261Z,3.30
2023-08-14T06:04:03.940Z,3.65
2023-08-14T06:09:07.823Z,3.17
2023-08-14T06:14:10.957Z,3.40
2023-08-14T06:19:15.552Z,4.00
2023-08-14T06:24:18.699Z,3.58
2023-08-14T06:29:21.797Z,4.28
2023-08-14T06:34:26.432Z,4.32
2023-08-14T06:39:29.716Z,3.90
2023-08-14T06:44:32.836Z,3.22
2023-08-14T06:49:39.936Z,3.30
2023-08-14T06:54:43.026Z,2.92
2023-08-14T06:59:46.871Z,3.42
2023-08-14T07:04:51.489Z,3.10
2023-08-14T07:09:54.603Z,2.50
2023-08-14T07:14:57.750Z,3.05
2023-08-14T07:20:02.402Z,2.90
2023-08-14T07:25:06.965Z,3.00
2023-08-14T07:30:12.001Z,2.80
2023-08-14T07:35:16.740Z,2.65
2023-08-14T07:40:19.867Z,2.63
2023-08-14T07:45:23.022Z,2.70
2023-08-14T07:50:27.600Z,2.70
2023-08-14T07:55:30.934Z,2.38
2023-08-14T08:00:34.108Z,2.63
2023-08-14T08:05:38.871Z,2.70
2023-08-14T08:10:42.075Z,3.40
2023-08-14T08:15:45.422Z,3.22
2023-08-14T08:20:49.759Z,2.50
2023-08-14T08:25:52.823Z,3.05
2023-08-14T08:30:56.119Z,2.40
2023-08-14T08:36:00.702Z,2.60
2023-08-14T08:41:09.510Z,2.00
2023-08-14T08:46:14.487Z,2.08
2023-08-14T08:51:20.058Z,1.88
2023-08-14T08:56:24.001Z,2.35
2023-08-14T09:01:27.810Z,2.35
2023-08-14T09:06:32.497Z,1.63
2023-08-14T09:11:36.014Z,4.20
2023-08-14T09:16:39.324Z,1.80
2023-08-14T09:21:46.114Z,1.42
2023-08-14T09:26:58.493Z,1.88
2023-08-14T09:32:05.655Z,1.50
2023-08-14T09:37:12.682Z,1.80
2023-08-14T09:42:16.021Z,1.77
2023-08-14T09:47:19.583Z,1.48
2023-08-14T09:52:25.871Z,1.20
2023-08-14T09:57:29.682Z,1.40
2023-08-14T10:02:34.754Z,1.15
2023-08-14T10:07:41.255Z,1.00
2023-08-14T10:12:52.180Z,0.80
2023-08-14T10:17:58.920Z,0.80
2023-08-14T10:23:04.454Z,0.82
2023-08-14T10:28:08.816Z,1.05
2023-08-14T10:33:12.713Z,0.90
2023-08-14T10:38:18.951Z,0.75
2023-08-14T10:43:30.665Z,0.70
2023-08-14T10:48:37.441Z,0.85
2023-08-14T10:53:42.989Z,0.98
2023-08-14T10:58:55.244Z,0.70
2023-08-14T11:04:00.530Z,0.70
2023-08-14T11:09:06.369Z,0.90
2023-08-14T11:14:10.645Z,1.08
2023-08-14T11:19:15.849Z,0.40
2023-08-14T11:24:20.413Z,0.82
2023-08-14T11:29:23.635Z,0.93
2023-08-14T11:34:27.343Z,0.98
2023-08-14T11:39:32.382Z,1.05
2023-08-14T11:44:35.553Z,0.65
2023-08-14T11:49:39.826Z,0.90
2023-08-14T11:54:46.123Z,0.85
2023-08-14T11:59:49.632Z,0.82
2023-08-14T12:04:54.404Z,0.93
2023-08-14T12:09:59.678Z,0.88
2023-08-14T12:15:04.635Z,0.90
2023-08-14T12:20:11.693Z,0.95
2023-08-14T12:25:20.831Z,0.93
2023-08-14T12:30:24.028Z,1.00
2023-08-14T12:35:27.439Z,0.73
2023-08-14T12:40:33.349Z,0.80
2023-08-14T12:45:36.580Z,1.00
2023-08-14T12:50:39.732Z,0.90
2023-08-14T12:55:44.657Z,0.73
2023-08-14T13:00:47.730Z,0.70
2023-08-14T13:05:50.964Z,0.85
2023-08-14T13:10:55.491Z,1.00
2023-08-14T13:15:59.524Z,0.82
2023-08-14T13:21:02.689Z,0.70
2023-08-14T13:26:07.227Z,0.95
2023-08-14T13:31:10.675Z,1.08
2023-08-14T13:36:13.904Z,1.33
2023-08-14T13:41:18.574Z,1.00
2023-08-14T13:46:21.755Z,0.80
2023-08-14T13:51:24.877Z,0.98
2023-08-14T13:56:29.600Z,0.90
2023-08-14T14:01:32.728Z,1.30
2023-08-14T14:06:35.979Z,0.82
2023-08-14T14:11:40.661Z,0.93
2023-08-14T14:16:56.858Z,0.75
2023-08-14T14:22:01.411Z,0.90
2023-08-14T14:27:06.390Z,0.73
2023-08-14T14:32:09.607Z,0.80
2023-08-14T14:37:12.762Z,0.70
2023-08-14T14:42:18.657Z,0.73
2023-08-14T14:47:22.040Z,0.65
2023-08-14T14:52:25.673Z,0.70
2023-08-14T14:57:30.533Z,0.70
2023-08-14T15:02:33.687Z,0.60
2023-08-14T15:07:36.865Z,0.80
2023-08-14T15:12:41.547Z,0.55
2023-08-14T15:17:45.229Z,1.00
2023-08-14T15:22:49.225Z,0.70
2023-08-14T15:27:53.667Z,0.95
2023-08-14T15:32:56.747Z,0.90
2023-08-14T15:38:00.125Z,0.90
2023-08-14T15:43:04.703Z,0.90
2023-08-14T15:48:08.052Z,0.68
2023-08-14T15:53:11.236Z,0.75
2023-08-14T15:58:15.950Z,0.75
2023-08-14T16:03:19.117Z,0.82
2023-08-14T16:08:22.345Z,0.73
2023-08-14T16:13:26.810Z,0.88
2023-08-14T16:18:29.979Z,0.65
2023-08-14T16:23:33.123Z,0.60
2023-08-14T16:28:37.653Z,0.80
2023-08-14T16:33:40.649Z,0.80
2023-08-14T16:38:43.905Z,0.52
2023-08-14T16:43:48.511Z,0.43
2023-08-14T16:48:51.633Z,1.40
2023-08-14T16:53:55.237Z,0.95
2023-08-14T16:58:59.881Z,0.80
2023-08-14T17:04:04.251Z,0.63
2023-08-14T17:09:09.634Z,0.70
2023-08-14T17:14:17.137Z,0.75
2023-08-14T17:19:20.451Z,0.63
2023-08-14T17:24:23.562Z,0.95
2023-08-14T17:29:28.129Z,0.80
2023-08-14T17:34:31.221Z,0.80
2023-08-14T17:39:34.384Z,1.17
2023-08-14T17:44:39.182Z,0.93
2023-08-14T17:49:42.409Z,0.82
2023-08-14T17:54:47.145Z,0.80
2023-08-14T17:59:51.748Z,1.17
2023-08-14T18:04:54.942Z,0.90
2023-08-14T18:09:58.001Z,0.73
2023-08-14T18:15:02.399Z,0.98
2023-08-14T18:20:06.738Z,1.13
2023-08-14T18:25:32.377Z,0.90
2023-08-14T18:30:36.856Z,1.00
2023-08-14T18:35:40.065Z,0.85
2023-08-14T18:40:46.152Z,1.17
2023-08-14T18:45:52.098Z,1.40
2023-08-14T18:50:57.083Z,1.15
2023-08-14T18:56:00.934Z,1.15
2023-08-14T19:01:05.385Z,1.40
2023-08-14T19:06:08.652Z,1.10
2023-08-14T19:11:11.880Z,1.17
2023-08-14T19:16:16.680Z,1.17
2023-08-14T19:21:19.716Z,1.20
2023-08-14T19:26:27.677Z,1.20
2023-08-14T19:31:32.834Z,1.30
2023-08-14T19:36:35.888Z,1.33
2023-08-14T19:41:38.973Z,1.38
2023-08-14T19:46:43.424Z,1.27
2023-08-14T19:51:46.401Z,1.45
2023-08-14T19:56:49.523Z,1.35
2023-08-14T20:01:54.110Z,1.60
2023-08-14T20:06:57.134Z,3.38
2023-08-14T20:12:00.209Z,2.38
2023-08-14T20:17:04.593Z,1.90
2023-08-14T20:22:07.609Z,1.52
2023-08-14T20:27:10.630Z,1.60
2023-08-14T20:32:15.174Z,1.88
2023-08-14T20:37:18.544Z,1.58
2023-08-14T20:42:21.909Z,1.70
2023-08-14T20:47:26.554Z,2.00
2023-08-14T20:52:29.703Z,1.70
2023-08-14T20:57:32.818Z,2.20
2023-08-14T21:02:37.499Z,2.10
2023-08-14T21:07:40.734Z,2.20
2023-08-14T21:12:43.755Z,2.33
2023-08-14T21:17:49.565Z,2.20
2023-08-14T21:22:52.836Z,2.17
2023-08-14T21:27:55.932Z,2.10
2023-08-14T21:33:00.371Z,1.95
2023-08-14T21:38:04.264Z,2.13
2023-08-14T21:43:07.681Z,1.73
2023-08-14T21:48:12.352Z,2.13
2023-08-14T21:53:15.603Z,2.20
2023-08-14T21:58:19.043Z,2.47
2023-08-14T22:03:23.549Z,2.50
2023-08-14T22:08:26.730Z,2.45
2023-08-14T22:13:29.903Z,2.40
2023-08-14T22:18:34.709Z,2.97
2023-08-14T22:23:37.952Z,1.98
2023-08-14T22:28:41.328Z,1.65
2023-08-14T22:33:46.424Z,1.73
2023-08-14T22:38:49.442Z,2.30
2023-08-14T22:43:52.470Z,2.00
2023-08-14T22:48:56.842Z,1.83
2023-08-14T22:54:01.426Z,2.20
2023-08-14T22:59:04.742Z,1.40
2023-08-14T23:04:09.302Z,1.42
2023-08-14T23:09:12.529Z,1.67
2023-08-14T23:14:16.337Z,1.80
2023-08-14T23:19:20.800Z,1.83
2023-08-14T23:24:23.844Z,1.73
2023-08-14T23:29:27.164Z,1.70
2023-08-14T23:34:31.639Z,1.40
2023-08-14T23:39:34.665Z,1.85
2023-08-14T23:44:37.767Z,1.45
2023-08-14T23:49:46.357Z,1.73
2023-08-14T23:54:49.434Z,1.20
2023-08-14T23:59:52.824Z,1.33
